Time;durP1;ratioP1;P1;durP2;ratioP2;P2;SDS_P1;SDS_P2;PMS_P1;PMS_P2;Temp;Humidity;BMP_temperature;BMP_pressure;BME280_temperature;BME280_humidity;BME280_pressure;Samples;Min_cycle;Max_cycle;Signal;HPM_P1;HPM_P2
2021/12/10 00:01:33;;;;;;;15.95;6.45;;;4.10;99.90;;;;;;4999365;28;20040;-66
2021/12/10 00:04:01;;;;;;;16.38;6.40;;;4.30;99.90;;;;;;5016431;28;20299;-65
2021/12/10 00:06:33;;;;;;;13.07;6.28;;;4.30;99.90;;;;;;5016410;28;20037;-65
2021/12/10 00:09:05;;;;;;;15.63;4.53;;;4.20;99.90;;;;;;5016472;28;20034;-64
2021/12/10 00:11:34;;;;;;;;;;;4.20;99.90;;;;;;5016842;28;20026;-66
2021/12/10 00:14:01;;;;;;;14.77;5.60;;;4.30;99.90;;;;;;5016219;28;19913;-65
2021/12/10 00:16:27;;;;;;;18.85;5.68;;;4.40;99.90;;;;;;5015429;28;20034;-66
2021/12/10 00:19:09;;;;;;;15.60;5.57;;;4.40;99.90;;;;;;5015514;28;20037;-66
2021/12/10 00:21:36;;;;;;;16.15;5.32;;;4.30;99.90;;;;;;5015363;28;20332;-66
2021/12/10 00:24:02;;;;;;;13.73;5.78;;;4.40;99.90;;;;;;5016113;28;20309;-66
2021/12/10 00:26:28;;;;;;;9.60;5.05;;;4.40;99.90;;;;;;5016073;28;20045;-66
2021/12/10 00:29:02;;;;;;;13.27;5.38;;;4.40;99.90;;;;;;5015371;28;20030;-65
2021/12/10 00:31:44;;;;;;;11.85;5.10;;;4.40;99.90;;;;;;5015365;28;20041;-65
2021/12/10 00:34:21;;;;;;;7.15;4.65;;;4.40;99.90;;;;;;5015973;28;20041;-65
2021/12/10 00:36:49;;;;;;;13.55;5.15;;;4.40;99.90;;;;;;5015977;28;20026;-65
2021/12/10 00:39:23;;;;;;;10.15;4.82;;;4.30;99.90;;;;;;5015841;28;20076;-65
2021/12/10 00:41:49;;;;;;;17.45;5.53;;;4.40;99.90;;;;;;5015839;28;20355;-65
2021/12/10 00:44:16;;;;;;;10.10;4.43;;;4.40;99.90;;;;;;5015204;28;20085;-65
2021/12/10 00:46:42;;;;;;;13.07;4.53;;;4.30;99.90;;;;;;5015046;28;20082;-65
2021/12/10 00:49:08;;;;;;;7.78;3.90;;;4.40;99.90;;;;;;5015760;28;20061;-65
2021/12/10 00:51:36;;;;;;;10.18;4.70;;;4.50;99.90;;;;;;5015917;28;20033;-65
2021/12/10 00:54:03;;;;;;;11.57;4.72;;;4.50;99.90;;;;;;5015593;28;20387;-65
2021/12/10 00:56:29;;;;;;;12.85;4.10;;;4.50;99.90;;;;;;5014922;28;20038;-65
2021/12/10 00:58:55;;;;;;;19.33;4.95;;;4.50;99.90;;;;;;5015578;28;20448;-65
2021/12/10 01:01:24;;;;;;;10.00;4.45;;;4.40;99.90;;;;;;5015536;28;20036;-64
2021/12/10 01:03:57;;;;;;;7.82;4.45;;;4.40;99.90;;;;;;5015658;28;20026;-65
2021/12/10 01:06:26;;;;;;;10.63;4.40;;;4.50;99.90;;;;;;5015534;28;20303;-65
2021/12/10 01:08:56;;;;;;;11.48;4.55;;;4.50;99.90;;;;;;5015447;28;20471;-65
2021/12/10 01:11:30;;;;;;;9.55;4.30;;;4.60;99.90;;;;;;5015419;28;20034;-65
2021/12/10 01:14:10;;;;;;;9.50;3.92;;;4.60;99.90;;;;;;5015318;28;20361;-65
2021/12/10 01:27:25;;;;;;;7.90;4.05;;;4.70;99.90;;;;;;5014292;28;20095;-65
2021/12/10 01:29:56;;;;;;;9.35;3.22;;;4.80;99.90;;;;;;5015145;28;20120;-65
2021/12/10 01:32:25;;;;;;;12.50;4.30;;;4.80;99.90;;;;;;5015552;28;20121;-65
2021/12/10 01:34:51;;;;;;;9.18;3.75;;;4.90;99.90;;;;;;5014244;28;20126;-65
2021/12/10 01:37:17;;;;;;;8.95;3.60;;;4.90;99.90;;;;;;5015003;28;20034;-65
2021/12/10 01:39:44;;;;;;;9.43;3.65;;;4.90;99.90;;;;;;5015536;28;20295;-65
2021/12/10 01:42:28;;;;;;;7.43;3.80;;;4.90;99.90;;;;;;5014971;28;20026;-65
2021/12/10 01:44:58;;;;;;;10.15;3.25;;;5.00;99.90;;;;;;5014905;28;20411;-65
2021/12/10 01:47:31;;;;;;;8.63;3.08;;;5.20;99.90;;;;;;5014122;28;20025;-65
2021/12/10 01:49:57;;;;;;;;;;;5.00;99.90;;;;;;5015288;28;20280;-65
2021/12/10 01:52:24;;;;;;;7.15;3.40;;;5.00;99.90;;;;;;5014756;28;20281;-65
2021/12/10 01:54:53;;;;;;;9.35;3.00;;;5.10;99.90;;;;;;5013742;28;20120;-65
2021/12/10 01:57:22;;;;;;;10.43;3.75;;;5.10;99.90;;;;;;5013991;28;20082;-65
2021/12/10 01:59:48;;;;;;;12.27;3.60;;;5.10;99.90;;;;;;5014644;28;20402;-64
2021/12/10 02:02:19;;;;;;;10.43;3.13;;;5.10;99.90;;;;;;5013817;28;20124;-64
2021/12/10 02:04:46;;;;;;;6.45;3.22;;;5.20;99.90;;;;;;5014632;28;20042;-64
2021/12/10 02:07:16;;;;;;;11.70;2.95;;;5.30;99.90;;;;;;5014669;28;20036;-65
2021/12/10 02:09:42;;;;;;;7.82;2.90;;;5.30;99.90;;;;;;5014522;28;20117;-65
2021/12/10 02:12:09;;;;;;;10.02;3.28;;;5.20;99.90;;;;;;5014514;28;20061;-65
2021/12/10 02:14:34;;;;;;;10.20;2.95;;;5.10;99.90;;;;;;5013619;28;20034;-65
2021/12/10 02:17:01;;;;;;;13.55;3.50;;;5.00;99.90;;;;;;5013676;28;20087;-65
2021/12/10 02:19:29;;;;;;;9.15;3.00;;;5.20;99.90;;;;;;5014871;28;20029;-65
2021/12/10 02:21:56;;;;;;;8.40;2.97;;;5.20;99.90;;;;;;5014275;28;20352;-64
2021/12/10 02:24:22;;;;;;;8.25;2.83;;;5.30;99.90;;;;;;5014296;28;20092;-65
2021/12/10 02:26:55;;;;;;;5.97;2.97;;;5.20;99.90;;;;;;5014366;28;20329;-65
2021/12/10 02:29:28;;;;;;;7.43;2.33;;;5.20;99.90;;;;;;5014576;28;20077;-65
2021/12/10 02:31:54;;;;;;;6.57;2.60;;;5.20;99.90;;;;;;5014302;28;20355;-65
2021/12/10 02:34:21;;;;;;;6.78;2.33;;;5.10;99.90;;;;;;5064913;28;20402;-67
2021/12/10 02:36:47;;;;;;;7.75;2.70;;;5.30;99.90;;;;;;5013689;28;20294;-65
2021/12/10 02:39:17;;;;;;;10.90;3.20;;;5.30;99.90;;;;;;4997168;28;20038;-65
2021/12/10 02:41:44;;;;;;;7.55;2.20;;;5.20;99.90;;;;;;5013407;28;20069;-64
2021/12/10 02:44:13;;;;;;;5.50;2.30;;;5.10;99.90;;;;;;5013217;28;20107;-65
2021/12/10 02:46:40;;;;;;;8.57;2.83;;;5.00;99.90;;;;;;5014181;28;20062;-65
2021/12/10 02:49:08;;;;;;;4.97;2.10;;;5.00;99.90;;;;;;5014014;28;20070;-65
2021/12/10 02:51:36;;;;;;;6.03;2.33;;;5.00;99.90;;;;;;5013155;28;20038;-66
2021/12/10 02:54:08;;;;;;;8.20;2.00;;;5.10;99.90;;;;;;5013845;28;20158;-66
2021/12/10 02:56:33;;;;;;;8.87;2.50;;;5.10;99.90;;;;;;5014144;28;20045;-66
2021/12/10 02:59:01;;;;;;;8.68;2.42;;;5.20;99.90;;;;;;5013341;28;20033;-65
2021/12/10 03:01:33;;;;;;;8.13;2.20;;;5.20;99.90;;;;;;5013236;28;20394;-64
2021/12/10 03:03:59;;;;;;;7.83;2.03;;;5.10;99.90;;;;;;5013762;28;20322;-66
2021/12/10 03:06:27;;;;;;;5.70;2.00;;;5.10;99.90;;;;;;5015127;28;20030;-66
2021/12/10 03:08:54;;;;;;;7.25;1.83;;;5.30;99.90;;;;;;5000278;28;20080;-66
2021/12/10 03:11:24;;;;;;;5.80;1.90;;;5.20;99.90;;;;;;5016430;28;20034;-65
2021/12/10 03:13:50;;;;;;;6.63;2.20;;;5.20;99.90;;;;;;5017310;28;20026;-66
2021/12/10 03:16:17;;;;;;;6.13;1.85;;;5.30;99.90;;;;;;5017091;28;20045;-66
2021/12/10 03:18:43;;;;;;;4.90;1.48;;;5.30;99.90;;;;;;5017132;28;20029;-67
2021/12/10 03:21:10;;;;;;;4.00;1.33;;;5.10;99.90;;;;;;5016268;28;20119;-65
2021/12/10 03:23:42;;;;;;;6.28;1.45;;;4.90;99.90;;;;;;5016981;28;20030;-66
2021/12/10 03:26:16;;;;;;;2.97;1.27;;;5.00;99.90;;;;;;5017082;28;20091;-65
2021/12/10 03:28:43;;;;;;;5.55;1.50;;;5.10;99.90;;;;;;5016955;28;20314;-65
2021/12/10 03:31:10;;;;;;;3.15;1.30;;;5.30;99.90;;;;;;5016163;28;20026;-66
2021/12/10 03:33:39;;;;;;;4.00;1.15;;;5.30;99.90;;;;;;5016188;28;20045;-65
2021/12/10 03:36:07;;;;;;;5.50;1.10;;;5.10;99.90;;;;;;5016842;28;20042;-66
2021/12/10 03:38:33;;;;;;;3.97;0.90;;;5.10;99.90;;;;;;5016792;28;20038;-66
2021/12/10 03:40:59;;;;;;;4.05;1.02;;;5.10;99.90;;;;;;5016776;28;20101;-66
2021/12/10 03:43:26;;;;;;;4.68;0.98;;;5.00;99.90;;;;;;5016496;28;20390;-66
2021/12/10 03:45:54;;;;;;;3.72;0.90;;;4.90;99.90;;;;;;5017053;28;20051;-66
2021/12/10 03:48:31;;;;;;;3.40;1.10;;;5.10;99.90;;;;;;4999569;28;20038;-66
2021/12/10 03:51:01;;;;;;;3.78;0.77;;;5.00;99.90;;;;;;5016614;28;20042;-66
2021/12/10 03:53:27;;;;;;;3.38;0.90;;;5.00;99.90;;;;;;5016489;28;20033;-65
2021/12/10 03:56:02;;;;;;;3.95;0.75;;;4.90;99.90;;;;;;5016573;28;20022;-66
2021/12/10 03:58:28;;;;;;;2.45;0.70;;;4.80;99.90;;;;;;5016747;28;20108;-65
2021/12/10 04:00:56;;;;;;;1.45;0.55;;;4.90;99.90;;;;;;4999622;28;20038;-66
2021/12/10 04:03:25;;;;;;;1.85;0.50;;;4.90;99.90;;;;;;5016436;28;20107;-65
2021/12/10 04:05:52;;;;;;;1.85;0.63;;;4.90;99.90;;;;;;5016721;28;20364;-66
2021/12/10 04:08:18;;;;;;;2.10;0.50;;;4.90;99.90;;;;;;5016309;28;20030;-64
2021/12/10 04:10:46;;;;;;;3.53;0.70;;;4.80;99.90;;;;;;5015695;28;20303;-65
2021/12/10 04:13:12;;;;;;;1.63;0.60;;;4.90;99.90;;;;;;5015818;28;20053;-65
2021/12/10 04:15:39;;;;;;;3.88;0.60;;;4.90;99.90;;;;;;5015672;28;20515;-66
2021/12/10 04:18:08;;;;;;;2.35;0.47;;;4.90;99.90;;;;;;5015436;28;20348;-65
2021/12/10 04:20:34;;;;;;;1.17;0.52;;;4.90;99.90;;;;;;5016629;28;20398;-64
2021/12/10 04:23:04;;;;;;;2.20;0.60;;;4.80;99.90;;;;;;5016092;28;20026;-65
2021/12/10 04:25:30;;;;;;;2.47;0.90;;;4.80;99.90;;;;;;5016092;28;20042;-65
2021/12/10 04:27:59;;;;;;;4.60;0.65;;;4.80;99.90;;;;;;4999415;28;20315;-65
2021/12/10 04:30:26;;;;;;;3.95;0.80;;;4.90;99.90;;;;;;5016517;28;20352;-69
2021/12/10 04:32:53;;;;;;;5.32;0.55;;;4.80;99.90;;;;;;5015854;28;20288;-65
2021/12/10 04:35:19;;;;;;;2.67;0.85;;;4.70;99.90;;;;;;5015887;28;20037;-66
2021/12/10 04:37:51;;;;;;;1.17;0.52;;;4.60;99.90;;;;;;5015982;28;20030;-65
2021/12/10 04:40:21;;;;;;;2.33;0.55;;;4.70;99.90;;;;;;5015900;28;20041;-65
2021/12/10 04:42:47;;;;;;;4.60;0.60;;;4.70;99.90;;;;;;5015868;28;20109;-65
2021/12/10 04:45:14;;;;;;;1.60;0.52;;;4.60;99.90;;;;;;5014953;28;20299;-65
2021/12/10 04:47:40;;;;;;;1.50;0.50;;;4.70;99.90;;;;;;5015714;28;20413;-65
2021/12/10 04:50:07;;;;;;;2.90;0.50;;;4.70;99.90;;;;;;4998687;28;20426;-65
2021/12/10 04:52:34;;;;;;;2.15;0.50;;;4.70;99.90;;;;;;5015065;28;20117;-65
2021/12/10 04:55:01;;;;;;;2.65;0.65;;;4.70;99.90;;;;;;4998874;28;20038;-66
2021/12/10 04:57:27;;;;;;;1.80;0.50;;;4.60;99.90;;;;;;5014782;28;20021;-65
2021/12/10 04:59:53;;;;;;;1.75;0.73;;;4.60;99.90;;;;;;5015623;28;20117;-66
2021/12/10 05:02:19;;;;;;;3.55;0.80;;;4.60;99.90;;;;;;5014753;28;20034;-65
2021/12/10 05:04:48;;;;;;;1.70;0.70;;;4.60;99.90;;;;;;5016138;28;20333;-65
2021/12/10 05:07:16;;;;;;;4.20;0.60;;;4.70;99.90;;;;;;5014706;28;20029;-65
2021/12/10 05:09:42;;;;;;;1.50;0.50;;;4.70;99.90;;;;;;5015409;28;20465;-65
2021/12/10 05:12:10;;;;;;;2.30;0.80;;;4.60;99.90;;;;;;5014661;28;20057;-66
2021/12/10 05:14:36;;;;;;;1.40;0.70;;;4.50;99.90;;;;;;5014769;28;20390;-66
2021/12/10 05:17:06;;;;;;;2.38;0.80;;;4.60;99.90;;;;;;5014583;28;20034;-66
2021/12/10 05:19:33;;;;;;;1.48;0.65;;;4.60;99.90;;;;;;5015363;28;20021;-66
2021/12/10 05:22:01;;;;;;;3.15;0.85;;;4.50;99.90;;;;;;5014533;28;20030;-66
2021/12/10 05:24:28;;;;;;;1.95;0.60;;;4.40;99.90;;;;;;5014871;28;20137;-66
2021/12/10 05:26:55;;;;;;;2.55;0.60;;;4.60;99.90;;;;;;5014462;28;20052;-67
2021/12/10 05:29:22;;;;;;;3.05;0.80;;;4.60;99.90;;;;;;5014503;28;20048;-66
2021/12/10 05:31:48;;;;;;;2.83;0.80;;;4.70;99.90;;;;;;4998226;28;20082;-65
2021/12/10 05:34:15;;;;;;;2.15;0.80;;;4.60;99.90;;;;;;5015077;28;20053;-66
2021/12/10 05:36:41;;;;;;;4.95;0.95;;;4.60;99.90;;;;;;5015126;28;20030;-66
2021/12/10 05:39:09;;;;;;;3.45;1.00;;;4.60;99.90;;;;;;5015101;28;20026;-66
2021/12/10 05:41:35;;;;;;;3.88;0.77;;;4.60;99.90;;;;;;4998003;28;20083;-67
2021/12/10 05:44:02;;;;;;;5.90;0.85;;;4.50;99.90;;;;;;5014266;28;20046;-66
2021/12/10 05:46:28;;;;;;;3.50;1.00;;;4.50;99.90;;;;;;4998033;28;20034;-67
2021/12/10 05:48:54;;;;;;;3.40;0.80;;;4.60;99.90;;;;;;5065939;28;20314;-67
2021/12/10 05:51:20;;;;;;;2.03;0.65;;;4.70;99.90;;;;;;5014239;28;20117;-66
2021/12/10 05:53:46;;;;;;;2.28;0.60;;;4.70;99.90;;;;;;4965541;28;20072;-66
2021/12/10 05:56:12;;;;;;;2.25;0.52;;;4.70;99.90;;;;;;5013940;28;20390;-67
2021/12/10 05:58:38;;;;;;;3.45;0.80;;;4.80;99.90;;;;;;4997736;28;20125;-67
2021/12/10 06:01:09;;;;;;;1.63;0.70;;;4.80;99.90;;;;;;5013907;28;20410;-67
2021/12/10 06:03:38;;;;;;;1.70;0.50;;;4.70;99.90;;;;;;5014057;28;20037;-67
2021/12/10 06:06:05;;;;;;;2.15;0.70;;;4.80;99.90;;;;;;5014626;28;20132;-67
2021/12/10 06:08:31;;;;;;;1.38;0.60;;;4.70;99.90;;;;;;5013927;28;20040;-67
2021/12/10 06:10:59;;;;;;;1.40;0.70;;;4.70;99.90;;;;;;5013903;28;20102;-67
2021/12/10 06:13:26;;;;;;;2.15;0.50;;;4.60;99.90;;;;;;5014735;28;20042;-66
2021/12/10 06:15:53;;;;;;;1.58;0.50;;;4.60;99.90;;;;;;5013835;28;20034;-66
2021/12/10 06:18:19;;;;;;;2.17;0.70;;;4.70;99.90;;;;;;5014481;28;20108;-67
2021/12/10 06:20:50;;;;;;;1.08;0.60;;;4.70;99.90;;;;;;5013951;28;20126;-66
2021/12/10 06:23:16;;;;;;;1.85;0.60;;;4.70;99.90;;;;;;5014442;28;20410;-67
2021/12/10 06:25:42;;;;;;;3.30;0.60;;;4.70;99.90;;;;;;5014298;28;20034;-67
2021/12/10 06:28:08;;;;;;;1.83;0.55;;;4.70;99.90;;;;;;4997427;28;20438;-66
2021/12/10 06:30:40;;;;;;;1.75;0.60;;;4.80;99.90;;;;;;5014335;28;20033;-67
2021/12/10 06:33:10;;;;;;;0.90;0.50;;;4.90;99.90;;;;;;5014312;28;20045;-68
2021/12/10 06:35:38;;;;;;;1.95;0.60;;;4.70;99.90;;;;;;5013600;28;20026;-66
2021/12/10 06:38:04;;;;;;;1.85;0.60;;;4.70;99.90;;;;;;5014394;28;20025;-66
2021/12/10 06:40:34;;;;;;;1.50;0.57;;;4.60;99.90;;;;;;5013011;28;20041;-67
2021/12/10 06:43:00;;;;;;;1.50;0.40;;;4.70;99.90;;;;;;5014454;28;20034;-67
2021/12/10 06:45:29;;;;;;;3.10;0.43;;;4.70;99.90;;;;;;5014077;28;20050;-67
2021/12/10 06:47:58;;;;;;;1.25;0.60;;;4.80;99.90;;;;;;4997048;28;20097;-67
2021/12/10 06:50:28;;;;;;;1.95;0.60;;;4.90;99.90;;;;;;5013327;28;20038;-67
2021/12/10 06:52:55;;;;;;;2.10;0.60;;;4.90;99.90;;;;;;5013227;28;20034;-67
2021/12/10 06:55:21;;;;;;;2.63;0.52;;;4.90;99.90;;;;;;5013363;28;20026;-67
2021/12/10 06:57:47;;;;;;;2.00;0.57;;;4.70;99.90;;;;;;5013936;28;20037;-66
2021/12/10 07:00:24;;;;;;;2.47;0.50;;;4.80;99.90;;;;;;5013233;28;20030;-66
2021/12/10 07:02:50;;;;;;;2.05;0.50;;;4.90;99.90;;;;;;5013840;28;20034;-66
2021/12/10 07:05:17;;;;;;;1.95;0.70;;;5.00;99.90;;;;;;5013891;28;20447;-67
2021/12/10 07:07:43;;;;;;;2.50;0.80;;;5.00;99.90;;;;;;5013247;28;20117;-67
2021/12/10 07:10:11;;;;;;;2.00;0.70;;;4.90;99.90;;;;;;4996861;28;20045;-67
2021/12/10 07:12:38;;;;;;;1.05;0.63;;;4.90;99.90;;;;;;5012905;28;20050;-67
2021/12/10 07:15:09;;;;;;;1.70;0.60;;;4.80;99.90;;;;;;5013879;28;20057;-68
2021/12/10 07:17:39;;;;;;;1.52;0.80;;;4.90;99.90;;;;;;5013113;28;20041;-65
2021/12/10 07:20:07;;;;;;;3.13;0.70;;;4.80;99.90;;;;;;5014036;28;20383;-66
2021/12/10 07:22:34;;;;;;;1.65;0.90;;;5.90;99.90;;;;;;5013032;28;20413;-66
2021/12/10 07:25:00;;;;;;;1.10;0.70;;;5.60;99.90;;;;;;5013760;28;20042;-67
2021/12/10 07:27:26;;;;;;;1.30;0.65;;;5.40;99.90;;;;;;5013664;28;20314;-66
2021/12/10 07:29:51;;;;;;;1.23;0.50;;;5.20;99.90;;;;;;5013285;28;20045;-66
2021/12/10 07:32:17;;;;;;;2.95;0.70;;;5.30;99.90;;;;;;5013666;28;20030;-67
2021/12/10 07:34:43;;;;;;;1.95;0.52;;;5.20;99.90;;;;;;5013457;28;20037;-68
2021/12/10 07:37:10;;;;;;;1.25;0.70;;;5.10;99.90;;;;;;5013501;28;20037;-67
2021/12/10 07:39:37;;;;;;;2.05;0.90;;;5.00;99.90;;;;;;5012847;28;20314;-67
2021/12/10 07:42:08;;;;;;;3.80;0.80;;;5.00;99.90;;;;;;5013421;28;20048;-67
2021/12/10 07:44:38;;;;;;;1.05;0.80;;;4.90;99.90;;;;;;5012535;28;20053;-67
2021/12/10 07:47:09;;;;;;;1.35;0.70;;;4.90;99.90;;;;;;4996454;28;20103;-67
2021/12/10 07:49:37;;;;;;;1.02;0.70;;;5.00;99.90;;;;;;5013409;28;20118;-67
2021/12/10 07:52:14;;;;;;;1.45;0.90;;;4.90;99.90;;;;;;5012626;28;20037;-67
2021/12/10 07:54:41;;;;;;;1.42;0.90;;;5.00;99.90;;;;;;5016744;28;20030;-67
2021/12/10 07:57:07;;;;;;;8.07;1.65;;;5.00;99.90;;;;;;5015842;28;20421;-65
2021/12/10 07:59:34;;;;;;;1.20;0.95;;;5.10;99.90;;;;;;5017220;28;20095;-67
2021/12/10 08:02:02;;;;;;;1.52;0.80;;;5.80;99.90;;;;;;4999790;28;20042;-66
2021/12/10 08:04:28;;;;;;;3.13;0.93;;;5.40;99.90;;;;;;5016563;28;20041;-67
2021/12/10 08:06:54;;;;;;;1.63;0.80;;;5.30;99.90;;;;;;5015796;28;20088;-66
2021/12/10 08:09:20;;;;;;;1.83;0.80;;;5.20;99.90;;;;;;5016499;28;20049;-68
2021/12/10 08:11:46;;;;;;;1.60;0.88;;;4.80;99.90;;;;;;5015754;28;20038;-68
2021/12/10 08:14:12;;;;;;;2.22;1.00;;;4.70;99.90;;;;;;5016371;28;20030;-67
2021/12/10 08:16:39;;;;;;;1.83;1.05;;;4.70;99.90;;;;;;4983238;28;20083;-68
2021/12/10 08:19:06;;;;;;;1.27;0.80;;;4.80;99.90;;;;;;5016339;28;20038;-67
2021/12/10 08:21:33;;;;;;;1.08;0.80;;;4.80;99.90;;;;;;5016262;28;20033;-68
2021/12/10 08:23:58;;;;;;;1.33;1.00;;;4.90;99.90;;;;;;5016159;28;20060;-68
2021/12/10 08:26:25;;;;;;;0.95;0.90;;;4.90;99.90;;;;;;5015583;28;20328;-68
2021/12/10 08:28:51;;;;;;;1.55;0.90;;;4.60;99.90;;;;;;5015555;28;20105;-68
2021/12/10 08:31:17;;;;;;;1.00;0.90;;;4.50;99.90;;;;;;5016191;28;20110;-67
2021/12/10 08:33:48;;;;;;;2.25;1.10;;;4.60;99.90;;;;;;5015338;28;20379;-67
2021/12/10 08:36:17;;;;;;;1.00;0.90;;;4.60;99.90;;;;;;4999053;28;20054;-67
2021/12/10 08:38:43;;;;;;;2.97;0.95;;;4.60;99.90;;;;;;4999341;28;20109;-67
2021/12/10 08:41:14;;;;;;;1.67;1.15;;;4.60;99.90;;;;;;5016581;28;20030;-67
2021/12/10 08:43:41;;;;;;;0.93;0.80;;;5.60;99.90;;;;;;5015820;28;20038;-66
2021/12/10 08:46:09;;;;;;;1.20;1.00;;;5.30;99.90;;;;;;5015251;28;20045;-67
2021/12/10 08:48:36;;;;;;;1.63;1.00;;;4.90;99.90;;;;;;5016121;28;20508;-67
2021/12/10 08:51:14;;;;;;;1.95;1.15;;;4.70;99.90;;;;;;4998776;28;20067;-67
2021/12/10 08:53:40;;;;;;;1.23;1.10;;;4.70;99.90;;;;;;4998741;28;20044;-66
2021/12/10 08:56:07;;;;;;;2.50;1.20;;;4.70;99.90;;;;;;5015281;28;20034;-66
2021/12/10 08:58:33;;;;;;;1.52;1.30;;;4.70;99.90;;;;;;5015712;28;20033;-66
2021/12/10 09:01:05;;;;;;;1.40;1.30;;;4.60;99.90;;;;;;5015025;28;20066;-67
2021/12/10 09:03:32;;;;;;;1.60;1.30;;;4.80;99.90;;;;;;5015402;28;20112;-66
2021/12/10 09:06:00;;;;;;;1.77;1.20;;;4.80;99.90;;;;;;4999005;28;20026;-66
2021/12/10 09:08:26;;;;;;;2.00;1.48;;;4.90;99.90;;;;;;4998780;28;20041;-66
2021/12/10 09:10:52;;;;;;;1.95;1.15;;;4.90;99.90;;;;;;5014945;28;20042;-66
2021/12/10 09:13:20;;;;;;;2.17;1.25;;;4.80;99.90;;;;;;5015560;28;20420;-66
2021/12/10 09:15:50;;;;;;;1.95;1.30;;;4.70;99.90;;;;;;5014660;28;20026;-66
2021/12/10 09:18:16;;;;;;;1.77;1.38;;;4.70;99.90;;;;;;5014751;28;20037;-67
2021/12/10 09:20:47;;;;;;;2.47;1.55;;;4.80;99.90;;;;;;5015477;28;20101;-67
2021/12/10 09:23:16;;;;;;;1.60;1.50;;;4.90;99.90;;;;;;5015709;28;20389;-67
2021/12/10 09:25:43;;;;;;;2.28;1.23;;;4.80;99.90;;;;;;5015419;28;20113;-66
2021/12/10 09:28:09;;;;;;;2.80;1.23;;;5.10;99.90;;;;;;5014550;28;20037;-67
2021/12/10 09:30:37;;;;;;;1.75;1.30;;;5.20;99.90;;;;;;5015276;28;20022;-67
2021/12/10 09:33:03;;;;;;;1.33;1.10;;;5.20;99.90;;;;;;5014471;28;20044;-67
2021/12/10 09:35:32;;;;;;;1.85;1.00;;;5.10;99.90;;;;;;5014509;28;20038;-67
2021/12/10 09:37:59;;;;;;;1.10;1.00;;;5.00;99.90;;;;;;5015454;28;20026;-67
2021/12/10 09:40:31;;;;;;;1.10;1.00;;;4.80;99.90;;;;;;5015042;28;20061;-66
2021/12/10 09:42:58;;;;;;;1.10;1.00;;;4.90;99.90;;;;;;5014454;28;20033;-67
2021/12/10 09:45:30;;;;;;;1.20;1.10;;;4.80;99.90;;;;;;5014873;28;20077;-66
2021/12/10 09:47:56;;;;;;;1.48;1.20;;;5.00;99.90;;;;;;5015022;28;20036;-66
2021/12/10 09:50:25;;;;;;;2.90;1.27;;;5.10;99.90;;;;;;5014321;28;20078;-66
2021/12/10 09:52:51;;;;;;;1.95;1.00;;;5.10;99.90;;;;;;5014224;28;20030;-66
2021/12/10 09:55:18;;;;;;;1.40;1.00;;;5.30;99.90;;;;;;5014725;28;20382;-67
2021/12/10 09:57:46;;;;;;;1.48;1.00;;;5.30;99.90;;;;;;4997774;28;20034;-67
2021/12/10 10:00:22;;;;;;;1.55;1.20;;;5.30;99.90;;;;;;5014275;28;20398;-66
2021/12/10 10:02:49;;;;;;;3.08;1.10;;;5.30;99.90;;;;;;5014089;28;20462;-67
2021/12/10 10:05:15;;;;;;;1.42;1.10;;;5.30;99.90;;;;;;4997855;28;20022;-67
2021/12/10 10:07:41;;;;;;;1.73;1.20;;;5.50;99.90;;;;;;4997945;28;20070;-67
2021/12/10 10:10:14;;;;;;;2.47;1.35;;;5.50;99.90;;;;;;5014933;28;20429;-67
2021/12/10 10:12:43;;;;;;;1.92;1.73;;;5.40;99.90;;;;;;5015082;28;20026;-67
2021/12/10 10:15:14;;;;;;;2.10;1.50;;;5.50;99.90;;;;;;4996658;28;20090;-66
2021/12/10 10:17:41;;;;;;;1.52;1.20;;;5.20;99.90;;;;;;5014592;28;20029;-67
2021/12/10 10:20:10;;;;;;;2.03;1.20;;;5.00;99.90;;;;;;4997464;28;20029;-67
2021/12/10 10:22:36;;;;;;;1.40;1.20;;;5.20;99.90;;;;;;4997396;28;20026;-66
2021/12/10 10:25:08;;;;;;;1.65;1.13;;;5.10;99.90;;;;;;5014422;28;20030;-67
2021/12/10 10:27:38;;;;;;;1.23;0.88;;;5.00;99.90;;;;;;5013821;28;20030;-67
2021/12/10 10:30:27;;;;;;;1.85;1.10;;;4.80;99.90;;;;;;5014023;28;20034;-68
2021/12/10 10:32:57;;;;;;;1.20;1.00;;;5.00;99.90;;;;;;5014356;28;20038;-67
2021/12/10 10:35:27;;;;;;;0.90;0.82;;;5.00;99.90;;;;;;5013596;28;20061;-67
2021/12/10 10:37:54;;;;;;;1.30;1.10;;;5.00;99.90;;;;;;5014258;28;20454;-67
2021/12/10 10:40:25;;;;;;;1.52;1.05;;;5.00;99.90;;;;;;5014263;28;20414;-67
2021/12/10 10:42:51;;;;;;;1.70;1.23;;;5.10;99.90;;;;;;5013441;28;20091;-67
2021/12/10 10:45:23;;;;;;;1.35;1.25;;;5.00;99.90;;;;;;5013981;28;20126;-67
2021/12/10 10:47:51;;;;;;;1.42;1.30;;;5.00;99.90;;;;;;5013479;28;20376;-67
2021/12/10 10:50:28;;;;;;;1.30;1.20;;;5.10;99.90;;;;;;5013284;28;20031;-66
2021/12/10 10:52:58;;;;;;;2.85;1.38;;;5.00;99.90;;;;;;5013472;28;20313;-67
2021/12/10 10:55:28;;;;;;;2.10;1.40;;;5.10;99.90;;;;;;5013347;28;20030;-67
2021/12/10 10:58:05;;;;;;;1.60;1.50;;;5.10;99.90;;;;;;5013317;28;20083;-68
2021/12/10 11:00:46;;;;;;;3.28;1.48;;;5.10;99.90;;;;;;5013385;28;20050;-69
2021/12/10 11:03:17;;;;;;;1.65;1.52;;;5.30;99.90;;;;;;5014056;28;20298;-68
2021/12/10 11:05:49;;;;;;;2.47;1.45;;;5.40;99.90;;;;;;5014040;28;20034;-67
2021/12/10 11:08:29;;;;;;;1.67;1.58;;;5.40;99.90;;;;;;5014153;28;20029;-68
2021/12/10 11:11:04;;;;;;;1.95;1.50;;;5.50;99.90;;;;;;5014046;28;20272;-68
2021/12/10 11:13:31;;;;;;;2.78;1.55;;;5.50;99.90;;;;;;5013122;28;20094;-68
2021/12/10 11:16:05;;;;;;;1.85;1.73;;;5.50;99.90;;;;;;4996943;28;20298;-68
2021/12/10 11:18:45;;;;;;;2.05;1.80;;;5.50;99.90;;;;;;5014147;28;20033;-68
2021/12/10 11:21:11;;;;;;;2.88;2.00;;;5.40;99.90;;;;;;5013949;28;20029;-68
2021/12/10 11:23:41;;;;;;;1.70;1.60;;;5.40;99.90;;;;;;5013063;28;20410;-67
2021/12/10 11:26:07;;;;;;;2.10;1.30;;;5.40;99.90;;;;;;5014114;28;20038;-69
2021/12/10 11:28:36;;;;;;;1.38;1.17;;;5.00;99.90;;;;;;5000304;28;20379;-68
2021/12/10 11:31:05;;;;;;;3.92;1.50;;;4.90;99.90;;;;;;5016158;28;20030;-68
2021/12/10 11:33:41;;;;;;;1.70;1.35;;;4.90;99.90;;;;;;5016282;28;20034;-68
2021/12/10 11:36:14;;;;;;;1.85;1.60;;;5.00;99.90;;;;;;5017090;28;20109;-68
2021/12/10 11:38:45;;;;;;;2.17;1.73;;;5.10;99.90;;;;;;5017090;28;20033;-68
2021/12/10 11:41:21;;;;;;;2.90;1.80;;;5.20;99.90;;;;;;5016287;28;20038;-68
2021/12/10 11:43:54;;;;;;;2.33;1.95;;;5.40;99.90;;;;;;5016041;28;20042;-68
2021/12/10 11:46:30;;;;;;;2.80;1.80;;;5.50;99.90;;;;;;5016085;28;20045;-68
2021/12/10 11:49:10;;;;;;;2.10;1.90;;;5.50;99.90;;;;;;5016951;28;20026;-68
2021/12/10 11:51:38;;;;;;;1.75;1.65;;;5.60;99.90;;;;;;5016183;28;20034;-68
2021/12/10 11:54:15;;;;;;;1.83;1.50;;;5.50;99.90;;;;;;5016722;28;20029;-68
2021/12/10 11:56:45;;;;;;;1.40;1.30;;;5.60;99.90;;;;;;5016045;28;20037;-69
2021/12/10 11:59:11;;;;;;;1.42;1.33;;;5.50;99.90;;;;;;5016444;28;20022;-68
2021/12/10 12:02:09;;;;;;;1.30;1.20;;;5.40;99.90;;;;;;4999478;28;20030;-67
2021/12/10 12:04:45;;;;;;;1.58;1.40;;;5.40;99.90;;;;;;5016443;28;20090;-68
2021/12/10 12:07:26;;;;;;;1.30;1.10;;;5.50;99.90;;;;;;5016467;28;20025;-69
2021/12/10 12:10:19;;;;;;;2.45;1.52;;;5.60;99.90;;;;;;5016799;28;20049;-67
2021/12/10 12:12:56;;;;;;;1.20;1.10;;;5.70;99.90;;;;;;5016450;28;20069;-67
2021/12/10 12:15:28;;;;;;;0.85;0.82;;;5.80;99.90;;;;;;5016723;28;20044;-65
2021/12/10 12:18:07;;;;;;;1.30;1.20;;;6.10;99.90;;;;;;5015670;28;20083;-67
2021/12/10 12:20:36;;;;;;;1.80;1.65;;;6.50;99.90;;;;;;5016329;28;20032;-67
2021/12/10 12:26:29;;;;;;;1.50;1.40;;;5.60;99.90;;;;;;5007293;28;20129;-69
2021/12/10 12:29:03;;;;;;;2.95;1.40;;;5.40;99.90;;;;;;4999269;28;20038;-67
2021/12/10 12:31:32;;;;;;;1.60;1.50;;;5.30;99.90;;;;;;5015543;28;20029;-69
2021/12/10 12:34:14;;;;;;;1.95;1.83;;;5.30;99.90;;;;;;5016018;28;20129;-69
2021/12/10 12:36:49;;;;;;;3.33;1.88;;;5.10;99.90;;;;;;5015390;28;20026;-67
2021/12/10 12:39:37;;;;;;;1.85;1.75;;;5.20;99.90;;;;;;5015464;28;20026;-67
2021/12/10 12:42:18;;;;;;;2.38;2.17;;;5.30;99.90;;;;;;5016072;28;20095;-68
2021/12/10 12:44:46;;;;;;;2.92;2.28;;;5.40;99.90;;;;;;5015041;28;20099;-68
2021/12/10 12:47:20;;;;;;;2.53;2.33;;;5.50;99.90;;;;;;5016443;28;20034;-68
2021/12/10 12:49:57;;;;;;;2.70;2.17;;;5.70;99.90;;;;;;4998894;28;20038;-68
2021/12/10 12:52:39;;;;;;;2.60;2.40;;;5.10;99.90;;;;;;5015407;28;20386;-67
2021/12/10 12:55:36;;;;;;;2.72;2.42;;;5.10;99.90;;;;;;5015853;28;20110;-68
2021/12/10 12:58:07;;;;;;;3.75;2.30;;;5.20;99.90;;;;;;4998842;28;20030;-68
2021/12/10 13:01:09;;;;;;;4.73;2.20;;;5.30;99.90;;;;;;5015209;28;20310;-67
2021/12/10 13:03:44;;;;;;;2.50;2.30;;;5.30;99.90;;;;;;5015695;28;20301;-67
2021/12/10 13:06:13;;;;;;;3.67;2.50;;;5.00;99.90;;;;;;5014817;28;20125;-67
2021/12/10 13:08:42;;;;;;;3.00;2.80;;;5.10;99.90;;;;;;5015512;28;20034;-67
2021/12/10 13:11:26;;;;;;;5.07;4.10;;;5.10;99.90;;;;;;5014800;28;20320;-67
2021/12/10 13:14:00;;;;;;;4.72;4.32;;;5.30;99.90;;;;;;5014776;28;20065;-67
2021/12/10 13:16:32;;;;;;;5.97;4.03;;;5.50;99.90;;;;;;5015584;28;20103;-67
2021/12/10 13:18:58;;;;;;;5.10;3.33;;;5.50;99.90;;;;;;5014858;28;20030;-67
2021/12/10 13:21:24;;;;;;;6.28;5.13;;;5.50;99.90;;;;;;4998346;28;20102;-68